Date,TemperatureHighF,TemperatureAvgF,TemperatureLowF,DewpointHighF,DewpointAvgF,DewpointLowF,HumidityHigh,HumidityAvg,HumidityLow,PressureMaxIn,PressureMinIn,WindSpeedMaxMPH,WindSpeedAvgMPH,GustSpeedMaxMPH,PrecipitationSumIn
2013-1-1,57,44,37,41,36,33,89,75,47,30.28,30.18,8,2,13,0.00
2013-1-2,61,46,35,41,35,30,85,68,38,30.24,30.12,8,3,12,0.00
2013-1-3,58,44,34,46,37,30,84,74,47,30.26,30.17,6,2,9,0.00
2013-1-4,60,47,38,45,38,33,88,72,45,30.28,30.19,6,2,10,0.00
2013-1-5,53,48,42,50,45,39,94,90,77,30.29,30.10,6,1,16,0.54
2013-1-6,51,46,39,48,44,37,96,90,78,30.21,30.07,5,0,10,0.14
2013-1-7,54,45,36,48,42,34,96,89,75,30.29,30.17,5,0,8,0.01
2013-1-8,61,49,40,52,44,38,96,86,65,30.24,30.13,6,1,7,0.01
2013-1-9,55,48,41,49,43,38,92,85,78,30.16,30.03,12,2,18,0.02
2013-1-10,50,43,37,42,36,33,94,78,52,30.23,30.09,15,3,29,0.03
2013-1-11,52,42,32,40,36,30,92,80,55,30.29,30.16,10,0,17,0.01
2013-1-12,50,43,36,39,35,30,91,73,55,30.27,30.16,6,2,13,0.00
2013-1-13,52,40,31,34,28,25,84,64,36,30.28,30.17,7,2,12,0.00
2013-1-14,51,41,31,33,23,14,71,51,28,30.42,30.23,6,1,12,0.00
2013-1-15,56,41,32,34,28,25,78,63,31,30.49,30.41,6,2,10,0.00
2013-1-16,60,46,34,38,33,28,82,65,36,30.44,30.25,8,2,12,0.00
2013-1-17,71,52,38,42,37,32,78,60,30,30.25,30.12,8,2,12,0.00
2013-1-18,70,53,42,43,37,33,72,57,27,30.21,30.12,7,2,10,0.00
2013-1-19,72,54,42,41,37,33,74,56,26,30.22,30.13,6,2,10,0.00
2013-1-20,73,55,40,42,35,31,68,52,23,30.21,30.09,8,2,12,0.00
2013-1-21,73,54,40,40,34,23,69,51,16,30.17,30.05,7,2,10,0.00
2013-1-22,68,54,40,42,34,28,69,51,22,30.11,30.01,7,2,12,0.00
2013-1-23,58,53,49,49,43,36,91,68,54,30.09,29.98,8,2,13,0.04
2013-1-24,56,53,51,54,51,48,95,92,90,30.19,30.05,5,0,7,0.19
2013-1-25,70,59,52,61,55,51,96,87,69,30.19,30.03,8,2,12,0.01
2013-1-26,59,52,42,52,45,38,93,79,52,30.12,30.01,13,3,24,0.00
2013-1-27,57,46,36,45,38,34,94,75,44,30.19,30.11,7,1,12,0.00
2013-1-28,59,48,37,45,40,34,91,75,47,30.31,30.18,8,1,17,0.00
2013-1-29,58,47,38,46,41,36,92,81,59,30.37,30.27,3,0,9,0.00
2013-1-30,64,49,39,49,42,37,94,78,50,30.37,30.27,3,0,8,0.01
2013-1-31,68,52,39,48,42,36,90,73,44,30.29,30.17,5,2,9,0.00
2013-2-1,68,51,42,50,45,39,93,81,49,30.26,30.13,8,2,14,0.00
2013-2-2,59,48,43,50,45,41,95,89,73,30.30,30.23,6,0,9,0.00
2013-2-3,57,48,41,48,44,39,93,86,69,30.28,30.15,6,1,10,0.00
2013-2-4,60,47,39,51,43,37,95,87,69,30.20,30.07,5,1,9,0.01
2013-2-5,55,48,42,47,44,40,93,85,73,30.18,30.09,6,2,17,0.00
2013-2-6,59,47,38,48,41,35,92,80,61,30.22,30.14,7,2,12,0.00
2013-2-7,57,46,38,48,40,35,89,80,46,30.21,30.04,6,2,14,0.03
2013-2-8,54,44,37,43,38,34,93,80,56,30.04,29.97,9,2,16,0.02
2013-2-9,57,43,32,45,36,29,90,78,52,30.13,30.02,6,1,10,0.01
2013-2-10,60,44,33,48,38,30,92,79,56,30.14,30.02,6,2,10,0.00
2013-2-11,58,46,35,45,39,32,91,77,56,30.27,30.08,7,2,10,0.00
2013-2-12,59,47,39,45,39,34,90,75,51,30.38,30.27,7,2,11,0.00
2013-2-13,63,48,37,48,40,34,90,76,46,30.36,30.23,6,1,9,0.00
2013-2-14,71,53,38,50,42,35,90,70,42,30.25,30.14,6,1,8,0.00
2013-2-15,76,59,44,47,41,35,78,56,23,30.26,30.18,7,2,12,0.00
2013-2-16,75,58,48,49,43,37,89,60,26,30.22,30.05,7,2,12,0.00
2013-2-17,60,49,41,48,44,40,95,85,65,30.09,29.98,6,1,9,0.00
2013-2-18,52,46,41,46,41,38,93,82,64,30.09,30.01,5,1,9,0.00
2013-2-19,48,43,35,46,39,32,93,86,74,30.02,29.79,7,1,28,0.38
2013-2-20,59,45,32,44,37,30,94,76,39,30.10,29.86,13,2,23,0.01
2013-2-21,60,47,35,44,36,32,94,68,35,30.20,30.08,10,2,20,0.00
2013-2-22,62,48,36,49,40,32,85,77,61,30.27,30.19,7,2,12,0.00
2013-2-23,61,50,40,44,39,34,90,69,42,30.27,30.15,13,2,21,0.00
2013-2-24,63,52,39,36,30,23,82,47,25,30.28,30.16,12,2,21,0.00
2013-2-25,60,48,37,46,39,30,84,70,48,30.30,30.17,6,1,9,0.00
2013-2-26,66,50,38,48,39,28,88,69,24,30.23,30.12,7,2,12,0.00
2013-2-27,70,51,38,48,40,31,87,67,26,30.39,30.22,6,1,10,0.00
2013-2-28,66,52,42,53,46,39,91,80,59,30.47,30.37,5,1,9,0.00
2013-3-1,78,59,46,56,50,43,93,74,42,30.44,30.21,7,1,12,0.00
2013-3-2,70,57,50,53,48,45,93,74,40,30.25,30.10,7,1,10,0.00
2013-3-3,60,52,49,52,49,45,94,87,74,30.14,30.06,7,1,12,0.00
2013-3-4,57,51,46,48,45,43,88,81,68,30.18,30.08,8,2,14,0.00
2013-3-5,54,49,45,44,43,41,91,79,67,30.12,29.96,10,2,20,0.18
2013-3-6,56,50,42,49,45,39,93,83,67,30.11,29.95,12,2,25,0.31
2013-3-7,57,47,40,46,42,37,92,83,56,30.03,29.88,7,2,14,0.27
2013-3-8,61,50,43,49,43,40,94,77,53,30.12,29.85,14,2,20,0.03
2013-3-9,66,54,46,48,42,37,82,67,34,30.32,30.12,8,1,20,0.00
2013-3-10,63,50,39,48,44,36,92,79,52,30.37,30.27,5,1,9,0.00
2013-3-11,70,52,39,49,42,33,92,75,26,30.28,30.12,9,1,14,0.00
2013-3-12,77,54,42,52,46,41,95,79,37,30.17,30.06,6,1,9,0.00
2013-3-13,81,56,44,57,49,43,96,80,30,30.17,30.07,6,1,12,0.01
2013-3-14,64,54,45,54,50,44,96,86,65,30.18,30.11,5,1,9,0.00
2013-3-15,69,55,44,51,46,40,88,73,44,30.14,30.05,7,1,10,0.00
2013-3-16,64,53,45,53,48,43,95,85,61,30.12,30.04,7,1,13,0.00
2013-3-17,68,53,42,50,45,39,93,76,39,30.16,30.05,6,1,12,0.01
2013-3-18,63,51,41,50,45,38,90,80,60,30.15,30.05,6,1,12,0.00
2013-3-19,68,55,46,51,46,40,91,73,42,30.16,30.08,8,2,13,0.11
2013-3-20,63,56,52,55,51,45,94,85,54,30.16,30.09,8,2,13,0.02
2013-3-21,67,55,46,51,43,39,88,67,36,30.14,30.00,8,3,18,0.00
2013-3-22,69,53,39,49,35,18,92,60,14,30.09,30.01,10,2,21,0.00
2013-3-23,67,53,39,48,40,33,81,64,29,30.14,30.04,6,1,9,0.00
2013-3-24,67,52,41,49,43,36,87,73,40,30.12,29.98,8,1,10,0.00
2013-3-25,63,51,42,50,44,40,94,79,51,30.06,29.96,8,1,12,0.00
2013-3-26,67,53,44,52,46,41,89,77,58,30.03,29.94,7,2,13,0.00
2013-3-27,65,55,47,54,50,44,93,84,66,30.05,29.98,8,2,15,0.00
2013-3-28,66,57,51,58,53,48,96,87,71,30.11,30.04,8,2,15,0.09
2013-3-29,67,55,46,56,50,45,95,84,66,30.11,30.06,7,1,14,0.01
2013-3-30,66,56,51,55,52,49,95,86,60,30.13,30.03,6,1,13,0.54
2013-3-31,62,57,53,56,53,51,95,87,72,30.10,30.03,9,2,20,0.09
2013-4-1,65,57,50,56,52,47,96,84,59,30.18,30.07,9,2,14,0.51
2013-4-2,72,56,45,56,50,43,94,80,48,30.21,30.09,7,1,12,0.01
2013-4-3,69,55,48,57,50,46,95,85,61,30.16,30.02,8,2,16,0.00
2013-4-4,59,54,50,57,52,48,96,93,88,30.15,30.06,6,0,9,0.30
2013-4-5,69,59,54,56,53,48,95,82,62,30.21,30.12,9,1,20,0.00
2013-4-6,65,56,48,57,51,46,93,85,74,30.23,30.14,8,1,20,0.00
2013-4-7,67,55,48,57,50,46,93,83,61,30.20,29.92,9,2,20,0.11
2013-4-8,67,55,48,50,40,30,91,60,29,30.03,29.85,15,5,29,0.07
2013-4-9,74,60,43,47,38,31,83,51,21,30.08,30.00,14,5,27,0.00
2013-4-10,81,61,47,55,48,43,88,65,32,30.18,30.04,13,1,21,0.00
2013-4-11,67,57,50,52,49,46,91,75,56,30.10,29.88,8,1,16,0.00
2013-4-12,67,53,43,53,46,41,93,79,52,29.96,29.86,6,2,10,0.00
2013-4-13,67,53,45,52,45,39,93,74,43,29.95,29.86,20,3,28,0.00
2013-4-14,69,53,41,46,42,37,88,68,33,29.96,29.86,16,3,28,0.00
2013-4-15,60,51,46,47,40,35,89,66,43,29.99,29.90,13,3,23,0.00
2013-4-16,46,45,45,38,37,37,74,74,73,29.99,29.97,2,0,6,0.00
2013-4-17,69,58,42,37,31,25,71,39,20,30.26,30.16,13,3,25,0.00
2013-4-18,72,55,42,50,42,35,84,63,29,30.28,30.18,8,1,15,0.00
2013-4-19,71,55,45,51,45,40,87,71,36,30.27,30.10,6,1,15,0.00
2013-4-20,81,58,45,55,48,42,93,73,32,30.12,29.97,8,1,12,0.00
2013-4-21,81,60,46,54,48,43,89,70,34,30.04,29.93,5,1,9,0.00
2013-4-22,66,56,49,53,49,44,92,79,53,30.00,29.92,7,2,14,0.00
2013-4-23,59,53,48,52,49,46,94,87,74,30.01,29.90,8,2,17,0.00
2013-4-24,61,54,50,52,49,47,95,85,70,30.00,29.87,5,1,12,0.00
2013-4-25,68,56,47,53,49,45,95,78,52,30.15,30.00,7,2,17,0.00
2013-4-26,70,56,47,54,49,44,93,79,55,30.25,30.15,5,1,10,0.00
2013-4-27,69,56,48,54,49,46,93,80,50,30.24,30.11,7,1,12,0.00
2013-4-28,69,56,49,55,50,47,95,83,59,30.11,29.92,5,1,9,0.00
2013-4-29,76,59,49,57,52,46,93,77,50,29.92,29.80,6,1,8,0.00
2013-4-30,70,57,48,54,50,45,93,78,54,29.87,29.80,7,1,10,0.00
2013-5-1,64,55,48,53,50,45,92,82,65,30.11,29.87,8,2,14,0.00
2013-5-2,80,63,50,56,51,44,89,68,36,30.15,30.10,7,1,12,0.00
2013-5-3,90,66,54,53,46,28,87,56,11,30.11,29.83,7,2,14,0.00
2013-5-4,59,54,48,53,50,44,90,85,79,29.83,29.69,8,2,17,0.00
2013-5-5,66,58,53,53,51,48,87,78,56,29.83,29.67,9,3,25,0.00
2013-5-6,65,59,55,54,52,51,86,79,68,29.99,29.83,10,1,20,0.00
2013-5-7,69,60,53,55,52,48,92,75,58,30.08,29.98,9,1,16,0.00
2013-5-8,70,58,50,55,50,47,93,78,44,30.17,30.08,8,1,16,0.00
2013-5-9,68,58,52,54,50,48,87,78,60,30.20,30.10,6,1,12,0.00
2013-5-10,72,58,50,56,51,47,91,79,55,30.22,30.12,7,1,14,0.00
2013-5-11,81,59,49,58,52,47,95,81,40,30.18,30.08,7,1,13,0.00
2013-5-12,75,60,50,58,53,47,93,80,54,30.16,30.04,6,1,10,0.00
2013-5-13,75,60,51,57,53,48,95,78,46,30.12,29.98,7,2,12,0.00
2013-5-14,67,59,54,54,52,47,90,78,62,30.08,29.99,7,2,13,0.00
2013-5-15,73,58,45,52,47,42,90,71,38,30.11,30.04,14,2,24,0.00
2013-5-16,72,58,52,58,52,47,90,80,58,30.08,29.98,7,1,15,0.02
2013-5-17,75,60,48,53,48,44,90,67,35,30.12,30.01,12,2,22,0.00
2013-5-18,72,59,45,52,48,41,88,69,42,30.17,30.09,12,1,21,0.00
2013-5-19,84,61,48,56,51,45,90,72,30,30.14,29.98,5,0,12,0.00
2013-5-20,86,63,48,58,51,44,87,68,28,30.02,29.92,6,1,10,0.00
2013-5-21,75,58,51,55,46,28,91,68,18,30.03,29.95,15,4,27,0.00
2013-5-22,70,56,44,42,37,24,76,54,21,30.02,29.93,17,3,28,0.00
2013-5-23,68,56,46,48,43,39,82,64,45,30.04,29.97,12,2,21,0.00
2013-5-24,74,56,43,49,43,38,87,66,34,30.05,29.96,8,2,18,0.00
2013-5-25,69,56,43,50,46,39,89,70,41,30.10,30.02,15,3,25,0.00
2013-5-26,72,59,50,56,50,46,88,73,46,30.16,30.07,7,1,18,0.00
2013-5-27,68,58,50,57,52,47,92,81,64,30.16,30.04,9,1,13,0.00
2013-5-28,78,63,55,60,54,48,93,76,47,30.05,29.91,13,2,23,0.00
2013-5-29,76,62,52,58,51,45,92,70,44,29.99,29.90,14,2,25,0.00
2013-5-30,72,59,48,52,48,43,86,70,43,30.02,29.95,6,1,14,0.00
2013-5-31,76,60,47,56,49,43,88,70,42,30.03,29.92,7,1,12,0.00
2013-6-1,76,61,50,55,51,47,91,73,42,29.97,29.81,6,1,10,0.00
2013-6-2,64,57,50,54,51,47,91,82,69,29.82,29.76,7,2,12,0.00
2013-6-3,64,56,52,53,51,48,92,82,67,29.91,29.79,8,2,15,0.00
2013-6-4,65,56,49,55,51,47,91,82,70,30.00,29.89,9,2,15,0.00
2013-6-5,65,56,49,54,51,47,93,83,67,30.03,29.97,8,2,17,0.00
2013-6-6,64,57,53,54,52,50,91,83,69,30.00,29.92,10,2,15,0.00
2013-6-7,68,56,52,56,52,50,94,87,66,29.95,29.80,6,1,10,0.00
2013-6-8,62,56,50,56,53,49,96,90,80,29.89,29.80,6,1,14,0.00
2013-6-9,63,59,56,58,55,53,95,87,79,29.94,29.87,7,1,15,0.02
2013-6-10,69,62,57,55,53,51,83,75,59,29.99,29.89,6,1,13,0.00
2013-6-11,73,61,54,58,54,51,89,77,56,30.00,29.91,6,1,12,0.00
2013-6-12,72,60,50,56,50,42,93,73,37,30.05,29.94,13,2,20,0.00
2013-6-13,76,60,45,55,49,41,88,69,38,30.12,30.00,7,1,12,0.00
2013-6-14,86,64,48,56,50,43,89,67,25,30.02,29.82,6,1,15,0.00
2013-6-15,65,57,52,54,51,49,92,82,65,30.05,29.88,7,2,14,0.00
2013-6-16,76,61,53,57,52,50,89,75,42,30.11,30.04,9,2,20,0.00
2013-6-17,81,64,49,58,53,47,91,71,40,30.12,30.03,14,4,24,0.00
2013-6-18,73,62,54,53,50,45,87,65,38,30.07,30.00,16,3,26,0.00
2013-6-19,77,63,54,54,49,45,78,60,36,30.07,29.99,14,3,25,0.00
2013-6-20,78,62,48,52,47,39,85,61,25,30.03,29.95,16,2,25,0.00
2013-6-21,73,57,48,56,50,44,87,78,53,30.01,29.92,6,0,12,0.00
2013-6-22,78,60,49,56,52,46,90,76,42,29.97,29.88,7,1,12,0.00
2013-6-23,66,59,56,61,56,52,95,89,81,29.93,29.85,7,1,13,0.00
2013-6-24,59,58,57,58,57,56,96,95,94,29.96,29.83,3,0,7,0.05
2013-6-25,64,60,57,63,59,56,97,96,94,30.05,29.95,5,0,8,0.06
2013-6-26,86,69,59,69,62,58,97,81,49,30.06,29.96,7,1,15,0.01
2013-6-27,86,68,59,64,59,56,93,75,45,30.07,30.01,6,1,10,0.00
2013-6-28,85,67,58,62,57,54,90,74,41,30.03,29.92,6,1,12,0.00
2013-6-29,81,66,56,60,57,53,92,75,47,29.95,29.83,5,1,9,0.00
2013-6-30,80,64,55,61,56,52,92,78,50,29.89,29.79,5,1,9,0.00
2013-7-1,77,63,55,61,57,53,94,81,58,29.91,29.83,7,1,12,0.00
2013-7-2,79,64,56,62,57,54,95,81,55,29.97,29.87,7,1,16,0.00
2013-7-3,70,62,57,61,58,55,95,85,69,29.96,29.82,7,2,10,0.00
2013-7-4,69,61,57,60,57,56,96,87,72,29.84,29.77,8,2,13,0.00
2013-7-5,72,62,56,58,55,52,93,79,58,29.86,29.78,7,2,12,0.00
2013-7-6,65,58,55,55,53,52,91,84,70,29.87,29.81,8,2,16,0.00
2013-7-7,64,58,54,55,53,51,90,83,73,29.91,29.84,7,2,17,0.00
2013-7-8,67,58,54,56,54,52,91,84,66,30.01,29.91,8,2,12,0.00
2013-7-9,77,61,53,60,55,51,94,82,51,30.04,29.97,7,2,12,0.00
2013-7-10,68,60,55,58,55,53,95,85,70,30.03,29.94,8,2,14,0.00
2013-7-11,68,59,54,56,54,52,93,84,64,29.99,29.94,7,2,13,0.00
2013-7-12,72,58,53,58,53,51,92,83,58,29.99,29.92,6,1,12,0.00
2013-7-13,71,58,52,58,54,50,94,85,64,30.01,29.94,7,2,10,0.00
2013-7-14,71,59,53,58,54,52,95,85,61,30.04,29.93,6,2,12,0.00
2013-7-15,66,58,53,56,53,51,94,85,71,29.97,29.88,9,2,17,0.00
2013-7-16,68,60,56,57,55,53,93,82,65,30.05,29.91,9,2,18,0.01
2013-7-17,74,62,52,59,55,49,92,78,59,30.11,30.04,8,2,12,0.00
2013-7-18,71,60,54,58,54,52,93,84,63,30.09,29.98,6,1,12,0.00
2013-7-19,69,59,54,57,54,52,95,85,66,30.00,29.88,6,1,10,0.00
2013-7-20,64,56,54,56,53,52,95,89,75,29.91,29.83,7,1,12,0.01
2013-7-21,71,59,54,58,54,52,94,84,65,29.93,29.82,7,2,12,0.00
2013-7-22,70,62,57,61,57,54,92,84,74,29.99,29.92,6,1,12,0.00
2013-7-23,72,62,57,61,57,54,93,84,66,30.04,29.98,7,2,13,0.00
2013-7-24,72,61,56,60,56,54,95,86,66,30.02,29.94,6,1,12,0.00
2013-7-25,69,60,54,58,55,53,95,86,68,30.07,29.97,7,1,12,0.00
2013-7-26,67,59,55,58,55,53,95,87,73,30.14,30.06,8,2,12,0.00
2013-7-27,65,58,55,57,55,53,95,88,75,30.07,29.92,9,2,14,0.00
2013-7-28,63,58,55,56,54,53,94,88,77,29.94,29.89,6,1,14,0.00
2013-7-29,65,59,56,56,54,52,86,82,73,30.06,29.91,8,1,16,0.00
2013-7-30,66,60,57,56,54,52,87,80,68,30.14,30.06,9,2,17,0.00
2013-7-31,70,60,55,58,54,51,89,81,64,30.14,30.04,6,2,15,0.00
2013-8-1,77,61,49,58,54,47,94,77,53,30.11,29.98,6,1,10,0.00
2013-8-2,72,58,49,58,52,47,92,82,58,30.03,29.94,7,2,12,0.00
2013-8-3,64,57,54,56,53,52,93,87,73,30.03,29.97,9,2,16,0.00
2013-8-4,66,58,54,56,53,52,95,87,69,30.05,29.99,6,1,13,0.00
2013-8-5,71,59,53,59,54,51,94,84,62,30.06,29.97,6,1,14,0.00
2013-8-6,66,59,55,57,54,52,93,85,70,30.08,30.01,10,1,18,0.00
2013-8-7,69,62,57,57,56,54,92,81,64,30.14,30.04,9,1,17,0.00
2013-8-8,68,60,57,58,56,53,93,85,71,30.07,29.96,10,2,16,0.00
2013-8-9,71,62,56,59,56,52,89,81,65,30.03,29.95,9,2,16,0.00
2013-8-10,76,63,58,61,57,55,92,82,59,30.07,30.01,9,1,13,0.00
2013-8-11,72,61,57,61,56,54,93,84,63,30.05,29.97,6,0,10,0.00
2013-8-12,72,60,55,60,56,53,94,86,66,30.03,29.97,7,1,12,0.00
2013-8-13,74,60,52,59,55,51,96,84,58,30.02,29.94,6,1,10,0.00
2013-8-14,77,62,52,60,55,49,95,81,55,30.02,29.91,6,1,9,0.00
2013-8-15,84,67,55,65,59,53,94,79,50,29.98,29.90,6,1,10,0.00
2013-8-16,84,65,57,66,59,54,94,82,51,30.00,29.93,6,1,12,0.00
2013-8-17,71,62,57,60,57,55,95,85,68,30.03,29.91,7,1,13,0.00
2013-8-18,72,61,57,61,57,55,95,87,67,29.93,29.83,6,1,10,0.00
2013-8-19,68,60,56,59,56,54,95,87,71,29.96,29.86,8,2,15,0.00
2013-8-20,66,59,56,58,56,54,95,88,74,29.96,29.89,7,2,15,0.00
2013-8-21,71,61,56,58,55,53,90,81,63,29.98,29.89,8,2,17,0.00
2013-8-22,75,63,55,59,56,52,93,78,57,30.00,29.89,8,2,18,0.00
2013-8-23,74,61,53,60,55,50,92,81,57,29.96,29.83,6,1,10,0.00
2013-8-24,76,63,53,62,57,51,95,82,60,29.93,29.84,6,1,9,0.00
2013-8-25,77,66,58,64,59,55,92,81,63,29.97,29.91,8,2,17,0.00
2013-8-26,81,66,60,62,59,55,92,78,51,30.02,29.89,7,1,10,0.00
2013-8-27,78,64,54,60,55,49,89,76,49,29.93,29.82,6,1,9,0.00
2013-8-28,84,65,54,65,58,52,93,80,45,29.97,29.86,5,1,13,0.00
2013-8-29,81,66,59,65,60,57,94,82,58,30.06,29.97,5,1,9,0.00
2013-8-30,86,68,57,65,60,54,93,77,48,30.05,29.91,6,1,9,0.00
2013-8-31,80,64,57,61,57,54,94,80,47,30.00,29.89,6,1,10,0.00
2013-9-1,87,68,59,62,59,55,94,75,38,29.96,29.86,6,1,12,0.00
2013-9-2,85,70,63,65,61,58,86,74,45,29.97,29.86,8,1,13,0.00
2013-9-3,85,70,58,61,57,54,90,68,36,30.01,29.91,12,2,18,0.00
2013-9-4,84,68,56,60,57,52,88,69,40,30.05,29.92,14,2,24,0.00
2013-9-5,82,67,56,60,56,53,91,71,42,30.04,29.93,14,2,28,0.00
2013-9-6,94,68,53,59,54,49,87,65,27,30.01,29.81,6,1,12,0.00
2013-9-7,73,63,57,60,56,50,93,78,55,29.90,29.84,7,2,12,0.00
2013-9-8,71,61,56,61,57,55,95,88,70,29.91,29.81,7,1,10,0.00
2013-9-9,70,60,55,60,57,54,96,88,70,29.84,29.76,6,1,10,0.00
2013-9-10,64,60,56,59,57,55,96,91,81,29.94,29.79,6,1,10,0.01
2013-9-11,68,62,57,59,57,54,90,84,73,30.03,29.94,9,2,16,0.00
2013-9-12,77,64,56,64,58,53,93,83,60,30.00,29.89,6,1,13,0.00
2013-9-13,74,62,55,61,57,54,95,85,63,29.93,29.78,6,1,10,0.00
2013-9-14,75,61,52,60,56,50,95,82,56,29.85,29.74,5,1,9,0.00
2013-9-15,78,63,52,62,56,48,93,79,56,29.89,29.80,7,1,10,0.00
2013-9-16,79,65,54,62,57,52,93,76,47,29.91,29.79,7,2,12,0.01
2013-9-17,76,63,54,59,54,50,92,74,43,29.92,29.86,14,2,23,0.00
2013-9-18,82,62,50,58,53,47,91,73,40,29.92,29.81,7,1,12,0.00
2013-9-19,92,65,50,58,49,39,84,63,16,29.87,29.73,9,1,12,0.00
2013-9-20,73,60,49,62,55,45,93,82,67,29.90,29.79,10,1,17,0.00
2013-9-21,62,60,53,61,58,51,96,94,91,29.94,29.85,8,1,14,0.37
2013-9-22,72,59,48,60,53,47,96,82,51,30.01,29.93,10,2,21,0.01
2013-9-23,84,66,52,61,55,49,90,69,40,30.02,29.90,9,1,16,0.00
2013-9-24,77,64,56,59,54,50,90,71,42,30.01,29.91,16,3,26,0.00
2013-9-25,69,60,52,51,47,42,84,63,39,29.96,29.85,15,3,24,0.00
2013-9-26,75,59,45,53,45,38,89,65,28,30.00,29.85,7,1,17,0.00
2013-9-27,77,61,46,54,44,36,75,55,28,30.10,29.99,8,2,18,0.00
2013-9-28,82,64,50,53,43,34,76,51,18,30.09,29.98,7,2,13,0.00
2013-9-29,82,64,52,61,54,47,88,73,44,30.12,30.03,5,1,13,0.00
2013-9-30,80,65,54,64,58,52,94,79,55,30.10,29.95,8,1,13,0.00
2013-10-1,70,62,54,57,51,44,90,69,47,30.04,29.93,9,1,16,0.00
2013-10-2,74,58,49,56,50,43,91,76,36,30.03,29.93,7,1,14,0.00
2013-10-3,73,59,45,52,40,31,86,57,22,30.06,29.94,10,1,20,0.00
2013-10-4,84,65,47,49,38,33,76,43,17,30.09,29.95,5,0,10,0.00
2013-10-5,88,69,55,40,33,23,46,30,10,30.17,30.08,7,2,12,0.00
2013-10-6,84,67,53,42,35,30,52,33,15,30.11,30.00,8,2,12,0.00
2013-10-7,73,60,50,54,43,35,88,57,28,30.01,29.90,5,1,10,0.00
2013-10-8,63,54,46,54,49,44,93,85,69,29.93,29.76,7,1,12,0.00
2013-10-9,63,55,48,50,48,45,90,78,57,29.80,29.66,8,2,17,0.00
2013-10-10,57,52,45,51,47,42,92,86,77,30.04,29.80,5,1,9,0.00
2013-10-11,64,54,50,53,49,47,92,83,63,30.11,30.00,7,1,16,0.00
2013-10-12,61,52,45,53,48,42,95,87,72,30.05,29.94,6,1,10,0.00
2013-10-13,65,53,44,54,48,42,94,86,66,30.08,29.96,5,1,9,0.00
2013-10-14,81,60,46,52,45,40,92,61,25,30.10,29.97,7,2,12,0.00
2013-10-15,84,65,49,49,39,36,63,43,19,30.03,29.92,9,2,12,0.00
2013-10-16,81,65,52,44,38,34,55,39,19,30.07,29.99,8,2,12,0.00
2013-10-17,80,61,50,55,43,34,82,54,32,30.08,29.95,6,1,10,0.00
2013-10-18,83,60,47,53,43,35,92,58,23,30.05,29.97,6,1,10,0.00
2013-10-19,75,55,43,54,47,40,94,80,44,30.07,30.00,5,1,10,0.00
2013-10-20,66,53,43,52,48,42,96,85,54,30.06,29.93,5,1,8,0.00
2013-10-21,67,53,45,55,48,44,96,87,51,30.03,29.94,5,1,10,0.00
2013-10-22,63,52,45,53,48,44,96,88,67,30.04,29.97,6,1,9,0.00
2013-10-23,57,50,46,52,48,45,96,93,84,30.00,29.95,5,1,9,0.00
2013-10-24,57,51,48,52,48,46,95,90,79,30.13,30.00,5,1,8,0.00
2013-10-25,66,53,44,55,48,42,94,84,61,30.18,30.08,5,1,9,0.01
2013-10-26,68,53,44,55,48,41,94,85,59,30.15,30.04,6,1,10,0.00
2013-10-27,62,53,48,54,49,46,96,88,68,30.06,29.77,5,0,20,0.00
2013-10-28,62,56,52,52,48,44,90,77,52,29.89,29.72,7,0,20,0.03
2013-10-29,62,54,47,55,49,44,96,86,61,30.07,29.89,8,1,12,0.15
2013-10-30,68,54,43,53,46,40,92,77,50,30.16,30.07,6,2,13,0.00
2013-10-31,72,57,46,54,47,42,88,71,44,30.18,30.06,6,1,12,0.00
2013-11-1,76,59,47,52,45,41,85,64,31,30.14,30.02,7,2,12,0.00
2013-11-2,66,55,45,52,44,37,85,69,47,30.03,29.93,8,2,12,0.00
2013-11-3,66,54,42,50,37,26,91,60,23,30.04,29.91,10,3,20,0.00
2013-11-4,68,54,42,38,34,29,74,51,24,30.06,29.92,15,2,27,0.00
2013-11-5,66,53,40,49,40,34,84,64,37,30.23,30.06,6,0,10,0.00
2013-11-6,77,60,45,46,37,32,71,47,20,30.25,30.15,6,1,9,0.00
2013-11-7,67,56,47,51,42,36,85,61,42,30.17,30.07,7,1,12,0.00
2013-11-8,71,55,43,53,46,39,89,75,52,30.10,29.94,5,0,8,0.00
2013-11-9,68,54,46,52,48,42,90,80,45,30.07,29.98,8,1,15,0.00
2013-11-10,62,54,49,52,49,46,91,83,69,30.15,30.05,7,1,12,0.00
2013-11-11,66,55,46,52,48,44,93,80,50,30.18,30.08,3,0,8,0.00
2013-11-12,75,60,50,55,50,45,89,72,37,30.26,30.16,3,0,9,0.00
2013-11-13,72,56,46,54,49,42,93,77,44,30.26,30.11,3,0,7,0.00
2013-11-14,57,51,45,55,49,43,96,93,86,30.14,29.92,5,0,7,0.00
2013-11-15,63,51,41,51,45,40,96,82,60,29.92,29.75,7,1,13,0.01
2013-11-16,61,50,40,50,44,37,92,80,59,29.96,29.82,7,1,15,0.00
2013-11-17,62,51,45,51,46,42,93,83,64,30.12,29.96,6,1,12,0.00
2013-11-18,59,50,44,50,46,42,93,84,71,30.17,30.10,7,2,15,0.00
2013-11-19,59,54,47,53,49,43,94,86,75,30.14,30.00,3,0,6,0.40
2013-11-20,57,55,50,56,54,48,97,96,94,30.00,29.87,6,0,10,0.40
2013-11-21,60,53,48,50,42,31,96,69,38,29.97,29.90,7,2,20,0.01
2013-11-22,60,52,43,37,31,24,71,46,29,30.03,29.93,6,1,16,0.00
2013-11-23,62,51,42,52,42,34,91,72,46,30.13,29.98,8,2,13,0.00
2013-11-24,65,51,41,48,42,36,90,73,49,30.26,30.13,7,2,10,0.00
2013-11-25,68,54,43,49,42,38,86,68,40,30.32,30.24,7,2,13,0.00
2013-11-26,71,55,45,51,43,38,78,65,36,30.26,30.03,7,2,10,0.00
2013-11-27,66,54,46,48,44,40,83,69,45,30.03,29.85,6,2,12,0.00
2013-11-28,66,54,47,48,43,41,82,68,43,30.09,29.86,7,2,12,0.00
2013-11-29,72,54,45,52,46,39,93,75,41,30.24,30.09,6,1,10,0.00
2013-11-30,71,51,39,52,45,36,93,81,44,30.28,30.18,5,1,8,0.00
2013-12-1,73,56,42,51,44,39,93,68,34,30.33,30.20,5,1,12,0.00
2013-12-2,64,53,43,52,46,39,88,77,55,30.24,30.01,9,2,14,0.00
2013-12-3,54,49,37,49,40,33,93,74,44,30.00,29.86,9,2,20,0.01
2013-12-4,53,41,31,34,29,24,84,64,35,30.09,29.95,7,1,13,0.00
2013-12-5,52,39,29,34,28,22,77,64,40,30.20,30.09,7,2,13,0.00
2013-12-6,52,42,31,48,34,24,89,74,55,30.23,29.98,13,4,26,0.17
2013-12-7,52,43,32,49,35,27,91,74,42,30.26,29.93,15,2,26,0.14
2013-12-8,49,38,30,35,27,20,87,68,42,30.32,30.20,6,1,10,0.00
2013-12-9,55,39,26,29,24,20,77,56,26,30.40,30.31,8,1,14,0.00
2013-12-10,61,44,32,33,26,23,70,52,25,30.39,30.18,6,2,12,0.00
2013-12-11,63,47,35,35,30,26,72,54,26,30.21,30.15,7,1,12,0.00
2013-12-12,59,46,35,42,32,26,72,60,30,30.26,30.18,6,2,10,0.00
2013-12-13,58,44,35,44,36,30,86,72,54,30.33,30.24,9,2,13,0.00
2013-12-14,68,50,37,43,37,31,83,63,35,30.37,30.27,6,2,9,0.00
2013-12-15,70,53,40,48,37,32,76,55,35,30.34,30.19,7,2,12,0.00
2013-12-16,77,58,46,40,35,31,60,45,21,30.20,30.08,7,3,12,0.00
2013-12-17,74,58,47,43,37,32,69,47,26,30.15,30.02,7,1,12,0.00
2013-12-18,55,51,44,49,45,40,90,80,66,30.03,29.82,7,1,12,0.00
2013-12-19,58,50,42,45,38,32,92,66,39,29.93,29.75,9,1,23,0.00
2013-12-20,62,46,34,41,28,10,69,51,13,30.02,29.92,8,1,15,0.00
2013-12-21,59,47,37,46,36,24,85,66,48,30.09,29.97,7,0,10,0.00
2013-12-22,60,48,39,51,43,36,92,83,51,30.30,30.09,6,1,9,0.00
2013-12-23,66,50,40,47,41,37,92,74,46,30.38,30.30,6,0,9,0.00
2013-12-24,70,54,41,45,39,35,80,59,33,30.32,30.17,7,1,10,0.00
2013-12-25,75,56,42,42,37,33,70,53,27,30.25,30.17,8,2,12,0.00
2013-12-26,80,58,44,42,36,30,70,48,17,30.22,30.12,7,2,12,0.00
2013-12-27,69,55,43,47,35,30,66,48,26,30.20,30.10,7,2,12,0.00
2013-12-28,63,49,39,48,37,29,74,63,30,30.12,30.00,5,1,12,0.00
2013-12-29,70,52,36,36,31,26,73,49,20,30.17,30.08,7,1,12,0.00
2013-12-30,65,51,40,41,32,29,64,50,27,30.26,30.17,7,2,10,0.00
2013-12-31,66,49,37,46,34,26,75,59,33,30.27,30.13,5,2,8,0.00
2014-1-1,66,50,38,48,37,30,76,60,39,30.20,30.10,6,1,10,0.00
2014-1-2,70,54,42,49,38,32,70,57,32,30.15,30.04,6,2,9,0.00